createdAt,value
2022-11-13T00:01:44.745Z,22.90
2022-11-13T00:04:15.920Z,25.23
2022-11-13T00:06:44.045Z,25.20
2022-11-13T00:09:13.227Z,24.38
2022-11-13T00:11:47.219Z,24.38
2022-11-13T00:14:15.943Z,24.45
2022-11-13T00:16:45.200Z,24.27
2022-11-13T00:19:20.348Z,26.10
2022-11-13T00:21:48.750Z,24.98
2022-11-13T00:24:17.348Z,25.98
2022-11-13T00:26:46.936Z,26.20
2022-11-13T00:29:15.575Z,26.35
2022-11-13T00:31:46.660Z,23.80
2022-11-13T00:34:45.839Z,26.17
2022-11-13T00:37:24.033Z,25.13
2022-11-13T00:40:07.519Z,24.58
2022-11-13T00:42:40.169Z,24.83
2022-11-13T00:45:28.983Z,25.15
2022-11-13T00:48:11.038Z,25.67
2022-11-13T00:50:51.206Z,25.77
2022-11-13T00:53:40.113Z,25.80
2022-11-13T00:56:23.591Z,25.92
2022-11-13T01:15:38.977Z,20.95
2022-11-13T01:18:15.788Z,20.70
2022-11-13T01:20:51.479Z,22.25
2022-11-13T01:23:27.928Z,21.58
2022-11-13T01:26:09.561Z,21.90
2022-11-13T01:28:47.260Z,21.52
2022-11-13T01:31:20.892Z,21.20
2022-11-13T01:33:57.595Z,21.13
2022-11-13T01:36:27.496Z,21.83
2022-11-13T01:38:57.091Z,23.33
2022-11-13T01:41:27.410Z,24.02
2022-11-13T01:43:58.621Z,24.88
2022-11-13T01:46:29.694Z,26.27
2022-11-13T01:49:04.380Z,27.35
2022-11-13T01:51:36.453Z,28.15
2022-11-13T01:54:08.481Z,27.25
2022-11-13T01:56:39.725Z,27.05
2022-11-13T01:59:15.394Z,25.77
2022-11-13T02:01:45.327Z,23.35
2022-11-13T02:04:16.234Z,23.98
2022-11-13T02:06:49.553Z,23.20
2022-11-13T02:09:23.499Z,24.48
2022-11-13T02:11:53.498Z,24.70
2022-11-13T02:14:26.770Z,24.20
2022-11-13T02:17:02.148Z,24.98
2022-11-13T02:19:39.438Z,24.67
2022-11-13T02:22:17.889Z,24.10
2022-11-13T02:24:54.608Z,23.50
2022-11-13T02:27:28.471Z,24.50
2022-11-13T02:29:57.158Z,22.77
2022-11-13T02:32:25.831Z,23.15
2022-11-13T02:34:55.065Z,18.92
2022-11-13T02:37:23.144Z,18.38
2022-11-13T02:39:53.044Z,17.73
2022-11-13T02:42:21.667Z,17.75
2022-11-13T02:44:50.324Z,18.15
2022-11-13T02:47:25.036Z,17.83
2022-11-13T02:49:55.125Z,16.80
2022-11-13T02:52:23.490Z,17.20
2022-11-13T02:54:53.169Z,16.70
2022-11-13T02:57:21.495Z,17.58
2022-11-13T02:59:51.441Z,18.67
2022-11-13T03:02:21.170Z,19.98
2022-11-13T03:05:11.266Z,20.63
2022-11-13T03:07:40.220Z,19.23
2022-11-13T03:10:16.243Z,19.42
2022-11-13T03:12:48.107Z,21.50
2022-11-13T03:15:17.367Z,22.85
2022-11-13T03:17:49.665Z,23.10
2022-11-13T03:20:19.710Z,25.10
2022-11-13T03:22:50.535Z,25.73
2022-11-13T03:25:21.322Z,26.92
2022-11-13T03:27:49.423Z,26.30
2022-11-13T03:30:19.384Z,28.17
2022-11-13T03:32:48.878Z,28.08
2022-11-13T03:35:18.207Z,26.80
2022-11-13T03:37:46.539Z,28.20
2022-11-13T03:40:15.109Z,30.95
2022-11-13T03:42:50.429Z,27.05
2022-11-13T03:45:18.755Z,22.92
2022-11-13T03:47:47.127Z,24.35
2022-11-13T03:50:19.930Z,16.40
2022-11-13T03:52:48.056Z,14.70
2022-11-13T03:55:16.418Z,14.20
2022-11-13T03:57:49.427Z,13.55
2022-11-13T04:02:50.163Z,14.52
2022-11-13T04:05:22.726Z,14.20
2022-11-13T04:07:53.269Z,14.90
2022-11-13T04:10:25.060Z,16.83
2022-11-13T04:13:00.530Z,18.80
2022-11-13T04:15:28.595Z,16.55
2022-11-13T04:18:24.141Z,17.27
2022-11-13T04:20:56.839Z,19.98
2022-11-13T04:23:34.174Z,23.15
2022-11-13T04:26:28.335Z,25.73
2022-11-13T04:29:01.900Z,21.65
2022-11-13T04:31:42.538Z,20.73
2022-11-13T04:34:29.825Z,19.33
2022-11-13T04:37:06.337Z,19.42
2022-11-13T04:39:36.027Z,18.55
2022-11-13T04:42:27.970Z,19.17
2022-11-13T04:45:01.146Z,18.40
2022-11-13T04:47:37.335Z,14.95
2022-11-13T04:50:19.084Z,14.10
2022-11-13T04:52:52.159Z,14.27
2022-11-13T04:55:23.311Z,14.23
2022-11-13T04:57:58.427Z,14.40
2022-11-13T05:00:36.126Z,15.02
2022-11-13T05:03:17.224Z,15.43
2022-11-13T05:06:00.425Z,16.35
2022-11-13T05:08:36.784Z,16.30
2022-11-13T05:11:09.446Z,16.77
2022-11-13T05:13:39.257Z,16.48
2022-11-13T05:16:34.847Z,18.42
2022-11-13T05:19:13.560Z,17.77
2022-11-13T05:22:04.306Z,17.00
2022-11-13T05:27:31.571Z,16.67
2022-11-13T05:30:08.473Z,14.52
2022-11-13T05:32:57.143Z,15.75
2022-11-13T05:35:30.745Z,14.43
2022-11-13T05:38:08.622Z,14.98
2022-11-13T05:40:43.862Z,17.58
2022-11-13T05:43:22.662Z,23.20
2022-11-13T05:46:18.008Z,20.92
2022-11-13T05:48:56.290Z,19.35
2022-11-13T05:51:41.987Z,17.08
2022-11-13T05:54:19.558Z,15.80
2022-11-13T05:56:54.913Z,16.02
2022-11-13T06:02:09.769Z,16.05
2022-11-13T06:04:56.239Z,15.10
2022-11-13T06:07:37.296Z,16.25
2022-11-13T06:10:09.156Z,14.88
2022-11-13T06:12:52.098Z,14.60
2022-11-13T06:17:56.870Z,13.43
2022-11-13T06:20:31.428Z,13.85
2022-11-13T06:23:00.151Z,15.05
2022-11-13T06:25:32.080Z,14.13
2022-11-13T06:28:04.527Z,13.40
2022-11-13T06:30:40.240Z,13.88
2022-11-13T06:33:09.011Z,13.70
2022-11-13T06:35:50.626Z,12.82
2022-11-13T06:38:19.590Z,11.88
2022-11-13T06:40:48.473Z,13.57
2022-11-13T06:43:20.133Z,15.25
2022-11-13T06:46:00.987Z,15.35
2022-11-13T06:48:34.846Z,13.73
2022-11-13T06:51:18.938Z,15.05
2022-11-13T06:53:48.921Z,14.25
2022-11-13T06:56:19.983Z,14.63
2022-11-13T06:58:48.933Z,13.60
2022-11-13T07:01:21.160Z,14.88
2022-11-13T07:03:54.999Z,14.40
2022-11-13T07:06:27.042Z,14.55
2022-11-13T07:08:57.985Z,13.85
2022-11-13T07:11:29.729Z,14.25
2022-11-13T07:14:02.972Z,13.95
2022-11-13T07:16:50.139Z,15.30
2022-11-13T07:19:23.779Z,14.07
2022-11-13T07:21:54.712Z,17.70
2022-11-13T07:24:31.860Z,16.38
2022-11-13T07:27:03.771Z,17.08
2022-11-13T07:29:32.868Z,17.45
2022-11-13T07:32:06.380Z,17.40
2022-11-13T07:34:35.470Z,17.85
2022-11-13T07:37:06.981Z,17.75
2022-11-13T07:39:39.159Z,18.52
2022-11-13T07:42:07.825Z,17.00
2022-11-13T07:45:00.158Z,16.85
2022-11-13T07:47:34.413Z,16.55
2022-11-13T07:50:11.257Z,17.95
2022-11-13T07:52:43.310Z,19.17
2022-11-13T07:55:19.336Z,20.17
2022-11-13T07:58:08.735Z,18.63
2022-11-13T08:00:55.861Z,19.45
2022-11-13T08:03:28.998Z,19.38
2022-11-13T08:06:10.616Z,19.63
2022-11-13T08:08:51.543Z,19.80
2022-11-13T08:11:22.613Z,20.00
2022-11-13T08:14:04.640Z,19.73
2022-11-13T08:16:36.146Z,20.17
2022-11-13T08:19:10.743Z,20.02
2022-11-13T08:21:41.263Z,17.95
2022-11-13T08:24:17.212Z,16.70
2022-11-13T08:26:57.484Z,16.80
2022-11-13T08:29:26.607Z,17.05
2022-11-13T08:32:02.450Z,15.27
2022-11-13T08:34:33.316Z,15.85
2022-11-13T08:37:06.483Z,15.57
2022-11-13T08:39:37.132Z,15.88
2022-11-13T08:42:08.855Z,17.20
2022-11-13T08:44:40.376Z,17.67
2022-11-13T08:47:14.498Z,16.20
2022-11-13T08:49:46.782Z,16.95
2022-11-13T08:52:20.224Z,18.17
2022-11-13T08:54:53.875Z,18.92
2022-11-13T08:57:25.542Z,19.70
2022-11-13T09:00:01.945Z,19.48
2022-11-13T09:02:35.453Z,19.35
2022-11-13T09:05:08.487Z,19.60
2022-11-13T09:07:37.425Z,17.73
2022-11-13T09:10:12.431Z,18.65
2022-11-13T09:12:44.592Z,18.95
2022-11-13T09:15:21.694Z,18.10
2022-11-13T09:17:57.449Z,19.17
2022-11-13T09:20:29.645Z,18.55
2022-11-13T09:22:59.423Z,19.10
2022-11-13T09:25:37.044Z,19.95
2022-11-13T09:28:08.067Z,18.60
2022-11-13T09:30:40.174Z,17.92
2022-11-13T09:33:09.892Z,17.30
2022-11-13T09:35:47.570Z,18.40
2022-11-13T09:38:17.603Z,18.27
2022-11-13T09:40:55.259Z,17.65
2022-11-13T09:43:34.114Z,16.73
2022-11-13T09:46:09.782Z,15.43
2022-11-13T09:48:41.957Z,18.25
2022-11-13T09:51:16.279Z,18.17
2022-11-13T09:53:45.597Z,19.05
2022-11-13T09:56:29.483Z,16.67
2022-11-13T09:59:12.077Z,16.58
2022-11-13T10:01:52.234Z,16.55
2022-11-13T10:04:30.073Z,13.85
2022-11-13T10:07:23.110Z,14.02
2022-11-13T10:10:07.300Z,16.00
2022-11-13T10:12:39.679Z,15.85
2022-11-13T10:15:12.942Z,14.85
2022-11-13T10:17:50.604Z,14.68
2022-11-13T10:20:29.891Z,14.38
2022-11-13T10:23:04.197Z,15.63
2022-11-13T10:25:43.346Z,14.45
2022-11-13T10:28:48.157Z,15.00
2022-11-13T10:31:06.998Z,15.77
2022-11-13T10:33:37.165Z,15.70
2022-11-13T10:36:19.419Z,17.77
2022-11-13T10:38:59.107Z,17.80
2022-11-13T10:41:30.450Z,16.92
2022-11-13T10:44:21.723Z,15.70
2022-11-13T10:46:53.126Z,18.33
2022-11-13T10:49:25.748Z,17.45
2022-11-13T10:52:11.307Z,20.30
2022-11-13T10:54:41.197Z,18.58
2022-11-13T10:57:30.334Z,17.55
2022-11-13T11:00:00.044Z,17.85
2022-11-13T11:02:30.121Z,18.73
2022-11-13T11:05:09.819Z,19.20
2022-11-13T11:07:42.165Z,18.88
2022-11-13T11:11:00.648Z,18.38
2022-11-13T11:13:30.389Z,20.25
2022-11-13T11:16:04.207Z,21.75
2022-11-13T11:18:40.005Z,20.05
2022-11-13T11:21:11.274Z,19.73
2022-11-13T11:23:44.865Z,21.20
2022-11-13T11:26:16.219Z,20.75
2022-11-13T11:28:49.543Z,20.95
2022-11-13T11:31:27.714Z,23.52
2022-11-13T11:34:00.651Z,21.33
2022-11-13T11:36:33.384Z,21.08
2022-11-13T11:39:14.354Z,21.05
2022-11-13T11:41:52.704Z,20.98
2022-11-13T11:44:28.663Z,23.90
2022-11-13T11:46:58.498Z,23.88
2022-11-13T11:49:28.077Z,24.92
2022-11-13T11:52:05.856Z,25.23
2022-11-13T11:54:43.919Z,25.00
2022-11-13T11:57:39.534Z,25.75
2022-11-13T12:00:12.457Z,24.67
2022-11-13T12:03:06.910Z,27.08
2022-11-13T12:05:47.236Z,24.17
2022-11-13T12:08:31.603Z,26.27
2022-11-13T12:11:09.453Z,24.27
2022-11-13T12:13:47.817Z,23.67
2022-11-13T12:16:25.052Z,25.95
2022-11-13T12:19:06.769Z,23.33
2022-11-13T12:21:55.943Z,22.52
2022-11-13T12:24:51.317Z,24.55
2022-11-13T12:27:29.117Z,22.98
2022-11-13T12:30:10.841Z,23.38
2022-11-13T12:33:08.522Z,22.75
2022-11-13T12:35:48.088Z,23.42
2022-11-13T12:38:29.620Z,24.00
2022-11-13T12:41:05.530Z,25.63
2022-11-13T12:44:03.328Z,24.77
2022-11-13T12:46:37.168Z,25.45
2022-11-13T12:49:29.657Z,26.40
2022-11-13T12:52:04.768Z,26.88
2022-11-13T12:54:35.274Z,27.15
2022-11-13T12:57:09.382Z,27.50
2022-11-13T12:59:41.468Z,26.20
2022-11-13T13:02:40.093Z,26.33
2022-11-13T13:05:23.853Z,25.00
2022-11-13T13:08:53.601Z,24.42
2022-11-13T13:11:32.832Z,25.60
2022-11-13T13:14:35.229Z,25.33
2022-11-13T13:17:20.936Z,36.80
2022-11-13T13:20:01.347Z,26.63
2022-11-13T13:22:32.802Z,26.52
2022-11-13T13:25:05.424Z,24.48
2022-11-13T13:27:42.196Z,25.52
2022-11-13T13:30:25.300Z,25.02
2022-11-13T13:33:04.892Z,27.80
2022-11-13T13:35:40.936Z,26.25
2022-11-13T13:38:18.018Z,25.38
2022-11-13T13:41:04.681Z,26.40
2022-11-13T13:43:50.108Z,26.88
2022-11-13T13:46:21.723Z,25.30
2022-11-13T13:48:59.433Z,23.83
2022-11-13T13:51:42.743Z,24.98
2022-11-13T13:54:21.492Z,23.95
2022-11-13T13:57:00.194Z,20.48
2022-11-13T13:59:40.270Z,22.45
2022-11-13T14:02:25.571Z,19.90
2022-11-13T14:05:04.970Z,20.30
2022-11-13T14:07:35.996Z,18.90
2022-11-13T14:10:10.058Z,19.17
2022-11-13T14:12:45.465Z,18.95
2022-11-13T14:15:30.819Z,16.45
2022-11-13T14:18:17.753Z,14.10
2022-11-13T14:20:54.898Z,14.55
2022-11-13T14:23:36.205Z,13.77
2022-11-13T14:26:14.844Z,12.23
2022-11-13T14:28:53.135Z,11.48
2022-11-13T14:31:30.571Z,10.82
2022-11-13T14:34:03.896Z,10.25
2022-11-13T14:36:40.881Z,10.23
2022-11-13T14:39:24.380Z,10.38
2022-11-13T14:41:58.374Z,9.82
2022-11-13T14:44:34.292Z,10.10
2022-11-13T14:47:10.873Z,10.00
2022-11-13T14:49:39.567Z,10.07
2022-11-13T14:52:10.750Z,10.05
2022-11-13T14:55:13.038Z,9.95
2022-11-13T14:57:36.326Z,10.45
2022-11-13T15:00:14.860Z,9.68
2022-11-13T15:02:44.694Z,9.52
2022-11-13T15:05:15.483Z,9.98
2022-11-13T15:07:59.373Z,12.82
2022-11-13T15:10:37.589Z,12.63
2022-11-13T15:13:14.013Z,12.32
2022-11-13T15:15:59.620Z,10.70
2022-11-13T15:18:32.332Z,9.70
2022-11-13T15:21:02.098Z,9.90
2022-11-13T15:23:31.629Z,10.48
2022-11-13T15:26:03.735Z,9.60
2022-11-13T15:28:33.054Z,10.02
2022-11-13T15:31:02.502Z,10.00
2022-11-13T15:33:32.440Z,9.55
2022-11-13T15:36:11.002Z,9.75
2022-11-13T15:38:42.737Z,10.75
2022-11-13T15:41:15.737Z,11.60
2022-11-13T15:43:48.603Z,10.23
2022-11-13T15:46:18.401Z,10.32
2022-11-13T15:48:50.396Z,10.50
2022-11-13T15:51:22.435Z,11.43
2022-11-13T15:54:03.927Z,10.15
2022-11-13T15:56:40.275Z,11.95
2022-11-13T15:59:13.435Z,13.02
2022-11-13T16:04:16.283Z,12.45
2022-11-13T16:06:54.772Z,13.00
2022-11-13T16:09:29.568Z,12.27
2022-11-13T16:12:07.267Z,12.32
2022-11-13T16:14:49.228Z,13.13
2022-11-13T16:17:22.404Z,13.57
2022-11-13T16:19:55.809Z,12.85
2022-11-13T16:22:29.122Z,14.20
2022-11-13T16:25:00.915Z,16.17
2022-11-13T16:27:31.246Z,16.48
2022-11-13T16:30:09.887Z,17.83
2022-11-13T16:32:40.151Z,18.48
2022-11-13T16:35:18.858Z,18.98
2022-11-13T16:37:48.106Z,21.08
2022-11-13T16:40:28.284Z,23.40
2022-11-13T16:42:58.704Z,22.65
2022-11-13T16:45:27.371Z,24.35
2022-11-13T16:48:00.592Z,26.02
2022-11-13T16:50:42.420Z,26.48
2022-11-13T16:53:14.567Z,26.85
2022-11-13T16:55:47.834Z,27.90
2022-11-13T16:58:23.975Z,29.25
2022-11-13T17:00:56.117Z,29.10
2022-11-13T17:03:29.816Z,27.73
2022-11-13T17:06:04.510Z,26.67
2022-11-13T17:08:33.161Z,26.60
2022-11-13T17:11:09.939Z,22.90
2022-11-13T17:13:42.005Z,21.42
2022-11-13T17:16:15.035Z,22.05
2022-11-13T17:21:20.223Z,17.73
2022-11-13T17:23:48.983Z,17.67
2022-11-13T17:26:17.662Z,18.73
2022-11-13T17:28:45.991Z,19.70
2022-11-13T17:31:18.765Z,22.38
2022-11-13T17:33:53.532Z,21.00
2022-11-13T17:36:26.509Z,22.17
2022-11-13T17:38:55.262Z,21.63
2022-11-13T17:41:23.414Z,20.85
2022-11-13T17:44:00.806Z,21.83
2022-11-13T17:46:32.183Z,20.50
2022-11-13T17:49:05.492Z,21.10
2022-11-13T17:54:10.007Z,23.83
2022-11-13T17:56:38.979Z,22.92
2022-11-13T17:59:11.570Z,23.50
2022-11-13T18:01:40.184Z,23.52
2022-11-13T18:04:08.587Z,23.33
2022-11-13T18:06:45.178Z,23.75
2022-11-13T18:09:13.449Z,23.77
2022-11-13T18:11:41.492Z,23.58
2022-11-13T18:14:10.348Z,23.67
2022-11-13T18:16:39.496Z,22.25
2022-11-13T18:19:10.060Z,21.63
2022-11-13T18:21:40.719Z,20.95
2022-11-13T18:24:14.306Z,20.80
2022-11-13T18:26:44.165Z,20.52
2022-11-13T18:29:12.627Z,19.33
2022-11-13T18:31:41.252Z,21.77
2022-11-13T18:34:10.184Z,22.17
2022-11-13T18:36:40.940Z,20.75
2022-11-13T18:39:16.227Z,21.10
2022-11-13T18:41:45.018Z,20.20
2022-11-13T18:44:13.336Z,23.02
2022-11-13T18:46:42.285Z,21.48
2022-11-13T18:49:10.522Z,20.15
2022-11-13T18:51:40.314Z,18.75
2022-11-13T18:54:11.716Z,16.52
2022-11-13T18:56:41.467Z,16.88
2022-11-13T18:59:11.272Z,16.73
2022-11-13T19:01:42.177Z,17.00
2022-11-13T19:04:26.883Z,23.98
2022-11-13T19:06:57.468Z,30.50
2022-11-13T19:09:26.189Z,40.25
2022-11-13T19:11:55.703Z,54.28
2022-11-13T19:14:24.767Z,47.92
2022-11-13T19:16:52.914Z,49.53
2022-11-13T19:19:23.713Z,40.50
2022-11-13T19:21:53.536Z,37.65
2022-11-13T19:24:24.618Z,31.77
2022-11-13T19:26:52.820Z,37.05
2022-11-13T19:29:21.055Z,30.80
2022-11-13T19:31:49.972Z,24.25
2022-11-13T19:34:19.469Z,22.55
2022-11-13T19:36:49.469Z,20.60
2022-11-13T19:39:18.160Z,18.77
2022-11-13T19:41:50.716Z,19.63
2022-11-13T19:44:19.104Z,21.00
2022-11-13T19:46:50.713Z,19.70
2022-11-13T19:49:20.054Z,18.58
2022-11-13T19:51:48.239Z,19.67
2022-11-13T19:54:17.430Z,19.50
2022-11-13T19:56:46.770Z,20.00
2022-11-13T19:59:15.959Z,23.23
2022-11-13T20:01:44.431Z,23.08
2022-11-13T20:04:14.410Z,24.42
2022-11-13T20:06:43.435Z,30.13
2022-11-13T20:09:11.541Z,33.78
2022-11-13T20:11:39.958Z,31.42
2022-11-13T20:14:13.667Z,25.77
2022-11-13T20:16:41.822Z,22.63
2022-11-13T20:19:10.756Z,25.08
2022-11-13T20:21:40.019Z,23.42
2022-11-13T20:24:11.006Z,23.92
2022-11-13T20:26:39.056Z,23.15
2022-11-13T20:29:07.718Z,24.23
2022-11-13T20:31:37.162Z,23.23
2022-11-13T20:34:07.064Z,24.15
2022-11-13T20:36:38.359Z,24.45
2022-11-13T20:39:09.484Z,25.08
2022-11-13T20:41:38.084Z,24.35
2022-11-13T20:44:11.860Z,24.65
2022-11-13T20:46:43.151Z,23.08
2022-11-13T20:49:11.559Z,24.88
2022-11-13T20:51:42.878Z,26.40
2022-11-13T20:54:13.270Z,25.35
2022-11-13T20:59:38.956Z,26.10
2022-11-13T21:02:18.208Z,26.52
2022-11-13T21:04:47.723Z,23.98
2022-11-13T21:07:15.954Z,24.13
2022-11-13T21:09:49.841Z,21.88
2022-11-13T21:12:18.644Z,20.90
2022-11-13T21:14:46.736Z,21.25
2022-11-13T21:17:16.194Z,20.88
2022-11-13T21:19:44.521Z,20.58
2022-11-13T21:22:13.183Z,19.60
2022-11-13T21:24:41.296Z,20.52
2022-11-13T21:27:10.178Z,20.05
2022-11-13T21:29:40.766Z,18.70
2022-11-13T21:32:09.063Z,18.88
2022-11-13T21:34:38.705Z,19.10
2022-11-13T21:37:08.197Z,19.05
2022-11-13T21:39:43.151Z,20.52
2022-11-13T21:42:12.524Z,21.10
2022-11-13T21:44:40.642Z,19.85
2022-11-13T21:47:14.795Z,22.23
2022-11-13T21:49:46.768Z,21.20
2022-11-13T21:52:15.293Z,21.33
2022-11-13T21:54:43.743Z,22.00
2022-11-13T21:57:12.249Z,22.02
2022-11-13T21:59:40.424Z,22.88
2022-11-13T22:02:12.840Z,22.90
2022-11-13T22:04:41.105Z,23.25
2022-11-13T22:07:10.819Z,22.67
2022-11-13T22:09:44.440Z,25.27
2022-11-13T22:12:13.789Z,23.15
2022-11-13T22:14:41.949Z,23.20
2022-11-13T22:17:10.672Z,24.90
2022-11-13T22:19:41.158Z,24.27
2022-11-13T22:22:11.771Z,25.05
2022-11-13T22:24:39.931Z,26.08
2022-11-13T22:27:10.673Z,24.27
2022-11-13T22:29:40.059Z,26.50
2022-11-13T22:32:08.301Z,28.15
2022-11-13T22:34:36.496Z,27.05
2022-11-13T22:37:07.845Z,27.75
2022-11-13T22:39:41.176Z,28.77
2022-11-13T22:42:10.468Z,28.48
2022-11-13T22:44:55.502Z,29.27
2022-11-13T22:47:25.113Z,28.40
2022-11-13T22:49:53.635Z,28.40
2022-11-13T22:52:22.851Z,28.55
2022-11-13T22:54:53.397Z,26.85
2022-11-13T22:57:21.477Z,27.45
2022-11-13T22:59:51.049Z,27.17
2022-11-13T23:02:21.845Z,27.73
2022-11-13T23:04:58.327Z,26.48
2022-11-13T23:07:26.502Z,26.17
2022-11-13T23:09:56.663Z,26.67
2022-11-13T23:12:28.098Z,26.33
2022-11-13T23:14:56.831Z,26.13
2022-11-13T23:17:25.234Z,27.58
2022-11-13T23:19:53.493Z,26.85
2022-11-13T23:22:22.528Z,27.80
2022-11-13T23:24:51.439Z,27.98
2022-11-13T23:27:22.739Z,25.50
2022-11-13T23:29:51.630Z,26.02
2022-11-13T23:32:22.947Z,26.73
2022-11-13T23:35:01.631Z,26.38
2022-11-13T23:37:30.087Z,25.73
2022-11-13T23:39:58.297Z,26.92
2022-11-13T23:42:46.070Z,25.95
2022-11-13T23:45:18.448Z,25.92
2022-11-13T23:47:49.592Z,28.30
2022-11-13T23:50:18.002Z,25.67
2022-11-13T23:52:53.807Z,26.98
2022-11-13T23:55:26.080Z,27.70
2022-11-13T23:58:00.021Z,27.60
